Time;durP1;ratioP1;P1;durP2;ratioP2;P2;SDS_P1;SDS_P2;PMS_P1;PMS_P2;Temp;Humidity;BMP_temperature;BMP_pressure;BME280_temperature;BME280_humidity;BME280_pressure;Samples;Min_cycle;Max_cycle;Signal;HPM_P1;HPM_P2
2021/01/19 00:00:20;;;;;;;2.00;0.80;;;;;;;26.28;32.77;98953.06;4990518;28;20256;-60
2021/01/19 00:02:47;;;;;;;1.50;0.65;;;;;;;26.33;32.88;98950.72;4990150;28;20288;-60
2021/01/19 00:05:14;;;;;;;1.83;0.80;;;;;;;26.31;32.74;98955.41;4990875;28;20221;-61
2021/01/19 00:07:40;;;;;;;1.38;0.70;;;;;;;26.32;33.18;98955.25;4990345;28;20211;-60
2021/01/19 00:10:07;;;;;;;0.80;0.70;;;;;;;26.27;33.22;98954.09;4990172;28;20592;-61
2021/01/19 00:12:33;;;;;;;3.75;0.80;;;;;;;26.32;32.99;98952.56;4989762;28;20669;-62
2021/01/19 00:14:59;;;;;;;1.35;0.90;;;;;;;26.30;32.68;98949.22;4991544;28;20283;-62
2021/01/19 00:17:25;;;;;;;3.53;0.80;;;;;;;26.28;32.98;98951.25;4989812;28;20591;-60
2021/01/19 00:19:52;;;;;;;1.75;0.57;;;;;;;26.27;32.60;98949.56;4988527;28;20347;-62
2021/01/19 00:22:18;;;;;;;2.10;0.82;;;;;;;26.27;33.06;98954.09;4990749;28;20336;-62
2021/01/19 00:24:44;;;;;;;1.30;0.88;;;;;;;26.21;32.71;98945.75;4990498;28;20235;-61
2021/01/19 00:27:10;;;;;;;1.15;0.77;;;;;;;26.24;33.17;98946.41;4990944;28;20643;-59
2021/01/19 00:29:36;;;;;;;1.17;0.70;;;;;;;26.21;33.05;98945.75;4990099;28;20335;-61
2021/01/19 00:32:02;;;;;;;2.72;0.80;;;;;;;26.24;33.18;98944.56;4990063;28;20209;-61
2021/01/19 00:34:28;;;;;;;1.40;0.73;;;;;;;26.22;33.34;98947.41;4990227;28;20640;-60
2021/01/19 00:36:55;;;;;;;0.70;0.50;;;;;;;26.15;33.00;98949.09;4990847;28;20217;-62
2021/01/19 00:39:21;;;;;;;1.58;0.85;;;;;;;26.20;32.43;98953.97;4990396;28;20252;-62
2021/01/19 00:41:47;;;;;;;4.15;0.82;;;;;;;26.18;32.26;98945.22;4991077;28;20247;-62
2021/01/19 00:44:14;;;;;;;3.00;1.00;;;;;;;26.08;32.51;98944.59;4989934;28;20213;-61
2021/01/19 00:46:40;;;;;;;1.02;0.65;;;;;;;26.13;32.48;98943.09;4990305;28;20303;-62
2021/01/19 00:49:06;;;;;;;4.07;0.90;;;;;;;26.12;32.42;98946.75;4989839;28;20236;-62
2021/01/19 00:51:33;;;;;;;2.33;0.70;;;;;;;26.06;32.91;98939.41;4990528;28;20304;-62
2021/01/19 00:54:00;;;;;;;1.70;0.80;;;;;;;26.04;32.67;98923.50;4990294;28;20633;-61
2021/01/19 00:56:35;;;;;;;1.35;0.57;;;;;;;26.02;32.58;98930.06;4990257;28;20212;-62
2021/01/19 00:59:01;;;;;;;2.35;0.70;;;;;;;26.03;32.52;98929.06;4989501;28;20246;-61
2021/01/19 01:01:27;;;;;;;1.98;0.73;;;;;;;26.00;33.31;98926.72;4989013;28;20217;-62
2021/01/19 01:03:53;;;;;;;3.42;0.80;;;;;;;25.97;32.53;98927.06;4989667;28;20792;-61
2021/01/19 01:06:19;;;;;;;1.45;0.60;;;;;;;25.98;33.38;98926.03;4989040;28;20652;-60
2021/01/19 01:08:45;;;;;;;1.70;0.80;;;;;;;25.92;32.77;98929.38;4988434;28;20243;-62
2021/01/19 01:11:12;;;;;;;2.25;0.70;;;;;;;25.90;33.49;98926.03;4990731;28;20269;-62
2021/01/19 01:13:38;;;;;;;0.80;0.73;;;;;;;25.91;32.76;98927.69;4989975;28;20667;-62
2021/01/19 01:16:06;;;;;;;1.15;0.68;;;;;;;25.95;33.13;98927.22;4990013;28;20217;-61
2021/01/19 01:18:33;;;;;;;2.80;0.68;;;;;;;25.90;33.33;98920.69;4990832;28;20228;-61
2021/01/19 01:20:59;;;;;;;2.35;0.70;;;;;;;25.84;33.55;98922.19;4989898;28;20229;-61
2021/01/19 01:23:25;;;;;;;1.15;0.75;;;;;;;25.93;33.38;98914.97;4989986;28;20206;-61
2021/01/19 01:25:51;;;;;;;1.27;0.77;;;;;;;25.92;32.64;98916.81;4989939;28;20295;-57
2021/01/19 01:28:18;;;;;;;3.83;0.73;;;;;;;25.91;32.63;98916.97;4988599;28;20534;-61
2021/01/19 01:30:44;;;;;;;1.88;0.60;;;;;;;25.92;32.90;98924.03;4987680;28;20221;-62
2021/01/19 01:33:10;;;;;;;1.17;0.75;;;;;;;25.91;32.53;98919.66;4989229;28;20240;-61
2021/01/19 01:35:36;;;;;;;1.30;0.73;;;;;;;25.91;32.80;98917.81;4990271;28;20207;-61
2021/01/19 01:38:02;;;;;;;0.73;0.63;;;;;;;25.88;33.12;98910.13;4993230;28;20209;-61
2021/01/19 01:40:29;;;;;;;1.27;0.60;;;;;;;25.90;32.71;98915.31;4994124;28;20229;-60
2021/01/19 01:42:56;;;;;;;0.98;0.70;;;;;;;25.84;33.45;98920.34;4993056;28;20208;-61
2021/01/19 01:45:25;;;;;;;0.80;0.55;;;;;;;25.83;33.39;98916.00;4993576;28;20332;-62
2021/01/19 01:47:54;;;;;;;1.30;0.68;;;;;;;25.89;32.94;98916.31;4993579;28;20303;-61
2021/01/19 01:50:21;;;;;;;1.40;0.77;;;;;;;25.88;33.33;98911.97;4994321;28;20236;-61
2021/01/19 01:52:48;;;;;;;2.15;0.65;;;;;;;25.88;33.12;98902.09;4995091;28;20213;-61
2021/01/19 01:55:15;;;;;;;1.27;0.65;;;;;;;25.85;33.36;98892.56;4994158;28;20217;-61
2021/01/19 01:57:42;;;;;;;0.98;0.50;;;;;;;25.84;32.55;98890.88;4994323;28;20206;-60
2021/01/19 02:00:10;;;;;;;1.05;0.70;;;;;;;25.82;33.50;98881.34;4994672;28;20233;-60
2021/01/19 02:02:48;;;;;;;0.75;0.60;;;;;;;25.84;33.42;98869.44;4993487;28;20205;-60
2021/01/19 02:05:14;;;;;;;0.85;0.70;;;;;;;25.85;33.52;98871.13;4992779;28;20311;-60
2021/01/19 02:07:50;;;;;;;5.28;0.60;;;;;;;25.83;33.41;98869.63;4993490;28;20227;-60
2021/01/19 02:10:22;;;;;;;2.45;1.25;;;;;;;25.80;32.61;98862.78;4993176;28;20231;-61
2021/01/19 02:12:54;;;;;;;0.60;0.60;;;;;;;25.82;32.59;98857.25;4992309;28;20597;-61
2021/01/19 02:15:27;;;;;;;1.73;0.80;;;;;;;25.78;32.64;98853.22;4994071;28;20210;-61
2021/01/19 02:18:05;;;;;;;0.88;0.55;;;;;;;25.75;33.42;98849.06;4994702;28;20216;-61
2021/01/19 02:20:57;;;;;;;1.67;0.77;;;;;;;25.80;32.84;98841.34;4993433;28;20229;-60
2021/01/19 02:23:38;;;;;;;1.17;0.50;;;;;;;25.78;32.86;98834.47;4995108;28;20217;-61
2021/01/19 02:26:47;;;;;;;1.73;0.80;;;;;;;25.76;32.56;98833.81;4994008;28;20552;-60
2021/01/19 02:29:52;;;;;;;1.80;0.70;;;;;;;25.79;33.02;98830.81;4992729;28;20225;-60
2021/01/19 02:32:28;;;;;;;2.40;0.80;;;;;;;25.80;33.36;98837.84;4981172;28;20328;-61
2021/01/19 02:35:02;;;;;;;1.17;0.75;;;;;;;25.76;32.96;98821.25;4993446;28;20274;-61
2021/01/19 02:37:34;;;;;;;0.68;0.50;;;;;;;25.81;32.50;98823.41;4993503;28;20315;-58
2021/01/19 02:40:04;;;;;;;0.93;0.60;;;;;;;25.81;32.58;98826.09;4993154;28;20247;-60
2021/01/19 02:42:36;;;;;;;0.98;0.60;;;;;;;25.75;33.54;98824.13;4992539;28;20301;-58
2021/01/19 02:45:06;;;;;;;1.65;0.60;;;;;;;25.77;32.98;98825.63;4993654;28;20229;-60
2021/01/19 02:47:33;;;;;;;1.45;0.70;;;;;;;25.73;32.62;98815.41;4991580;28;20216;-60
2021/01/19 02:49:59;;;;;;;0.90;0.52;;;;;;;25.71;33.15;98820.13;4991757;28;20244;-61
2021/01/19 02:52:26;;;;;;;1.08;0.60;;;;;;;25.72;32.52;98817.25;4992136;28;20206;-60
2021/01/19 02:54:53;;;;;;;0.60;0.47;;;;;;;25.70;32.68;98819.28;4993089;28;20316;-62
2021/01/19 02:57:42;;;;;;;1.55;0.75;;;;;;;25.68;33.23;98815.94;4993881;28;20300;-62
2021/01/19 03:00:12;;;;;;;1.13;0.60;;;;;;;25.68;33.25;98815.94;4994026;28;20234;-62
2021/01/19 03:02:42;;;;;;;1.65;0.75;;;;;;;25.70;33.29;98819.28;4992106;28;20309;-61
2021/01/19 03:05:11;;;;;;;1.73;0.60;;;;;;;25.67;33.32;98814.28;4992513;28;20229;-61
2021/01/19 03:07:42;;;;;;;0.82;0.60;;;;;;;25.66;33.17;98809.91;4993515;28;20565;-60
2021/01/19 03:10:09;;;;;;;0.50;0.50;;;;;;;25.65;32.57;98816.28;4992539;28;20232;-61
2021/01/19 03:12:39;;;;;;;1.85;0.70;;;;;;;25.66;33.30;98809.91;4992484;28;20584;-59
2021/01/19 03:15:07;;;;;;;2.63;0.90;;;;;;;25.61;33.03;98804.25;4991245;28;20205;-58
2021/01/19 03:17:33;;;;;;;0.77;0.52;;;;;;;25.59;32.48;98801.72;4991615;28;20624;-61
2021/01/19 03:20:00;;;;;;;1.75;0.70;;;;;;;25.62;33.41;98796.03;4991022;28;20221;-61
2021/01/19 03:22:26;;;;;;;0.40;0.40;;;;;;;25.59;32.99;98806.25;4990915;28;20212;-56
2021/01/19 03:24:52;;;;;;;2.47;0.73;;;;;;;25.58;33.55;98797.41;4991965;28;20213;-60
2021/01/19 03:27:18;;;;;;;1.25;0.70;;;;;;;25.54;32.55;98804.09;4991164;28;20209;-60
2021/01/19 03:29:44;;;;;;;2.30;0.55;;;;;;;25.54;32.83;98804.09;4990892;28;20233;-57
2021/01/19 03:32:10;;;;;;;0.63;0.57;;;;;;;25.57;32.73;98800.25;4992063;28;20209;-61
2021/01/19 03:34:36;;;;;;;1.10;0.50;;;;;;;25.58;33.09;98793.88;4991595;28;20645;-61
2021/01/19 03:37:03;;;;;;;0.65;0.50;;;;;;;25.56;33.30;98796.72;4991050;28;20296;-61
2021/01/19 03:39:31;;;;;;;2.15;0.77;;;;;;;25.56;32.64;98793.22;4991248;28;20243;-60
2021/01/19 03:41:57;;;;;;;0.98;0.55;;;;;;;25.64;32.39;98796.69;4991947;28;20201;-61
2021/01/19 03:44:23;;;;;;;1.00;0.65;;;;;;;25.59;33.11;98790.19;4991069;28;20201;-61
2021/01/19 03:46:49;;;;;;;0.82;0.50;;;;;;;25.60;32.75;98797.22;4991057;28;20731;-54
2021/01/19 03:49:15;;;;;;;2.83;0.60;;;;;;;25.65;33.12;98789.53;4991453;28;20221;-61
2021/01/19 03:51:41;;;;;;;1.33;0.68;;;;;;;25.67;32.59;98782.13;4991782;28;20201;-60
2021/01/19 03:54:09;;;;;;;2.00;0.60;;;;;;;25.70;32.71;98794.31;4990013;28;20227;-61
2021/01/19 03:56:35;;;;;;;1.45;0.50;;;;;;;25.71;33.28;98780.78;4990745;28;20715;-61
2021/01/19 03:59:01;;;;;;;0.60;0.40;;;;;;;25.65;32.53;98774.28;4990368;28;20545;-61
2021/01/19 04:01:27;;;;;;;2.70;0.65;;;;;;;25.65;32.25;98773.44;4991075;28;20679;-59
2021/01/19 04:03:53;;;;;;;1.20;0.60;;;;;;;25.71;32.36;98771.91;4990166;28;20304;-60
2021/01/19 04:06:19;;;;;;;0.93;0.50;;;;;;;25.73;33.14;98776.09;4991365;28;20229;-62
2021/01/19 04:08:45;;;;;;;1.90;0.60;;;;;;;25.73;32.63;98765.38;4991100;28;20205;-60
2021/01/19 04:11:12;;;;;;;0.77;0.50;;;;;;;25.77;32.59;98761.34;4991182;28;20255;-61
2021/01/19 04:13:38;;;;;;;0.55;0.45;;;;;;;25.81;32.54;98760.00;4990400;28;20211;-61
2021/01/19 04:16:05;;;;;;;1.13;0.60;;;;;;;25.81;32.38;98754.66;4989619;28;20202;-60
2021/01/19 04:18:31;;;;;;;1.15;0.50;;;;;;;25.79;32.84;98747.78;4990667;28;20288;-61
2021/01/19 04:20:57;;;;;;;0.80;0.55;;;;;;;25.81;32.41;98735.03;4989632;28;20225;-61
2021/01/19 04:23:23;;;;;;;3.58;0.60;;;;;;;25.77;32.54;98739.91;4990598;28;20289;-60
2021/01/19 04:25:50;;;;;;;1.95;0.68;;;;;;;25.72;32.54;98736.09;4992924;28;20273;-61
2021/01/19 04:28:18;;;;;;;0.93;0.55;;;;;;;25.73;32.93;98737.75;5006837;28;20239;-62
2021/01/19 04:30:44;;;;;;;1.20;0.70;;;;;;;25.71;31.90;98743.28;5006784;28;20289;-56
2021/01/19 04:33:11;;;;;;;1.23;0.60;;;;;;;25.67;32.35;98739.28;4992994;28;20219;-61
2021/01/19 04:35:38;;;;;;;2.00;0.75;;;;;;;25.59;32.36;98725.94;4993044;28;20648;-61
2021/01/19 04:38:04;;;;;;;0.85;0.68;;;;;;;25.60;32.34;98722.28;4992346;28;20216;-61
2021/01/19 04:40:30;;;;;;;0.80;0.60;;;;;;;25.59;32.29;98715.22;4990713;28;20233;-61
2021/01/19 04:42:56;;;;;;;1.88;0.68;;;;;;;25.56;32.24;98710.22;4991357;28;20215;-59
2021/01/19 04:45:24;;;;;;;0.50;0.50;;;;;;;25.52;33.65;98708.91;4990829;28;20232;-61
2021/01/19 04:47:51;;;;;;;0.60;0.40;;;;;;;25.63;32.77;98708.50;4989873;28;20209;-61
2021/01/19 04:50:17;;;;;;;1.35;0.60;;;;;;;25.67;33.16;98707.16;4989104;28;20622;-60
2021/01/19 04:52:46;;;;;;;0.60;0.43;;;;;;;25.74;33.20;98708.13;4990622;28;20213;-60
2021/01/19 04:55:17;;;;;;;1.83;0.52;;;;;;;25.80;33.27;98702.06;4990318;28;20220;-61
2021/01/19 04:57:43;;;;;;;0.60;0.50;;;;;;;25.82;32.88;98702.72;4990992;28;20215;-60
2021/01/19 05:00:12;;;;;;;1.40;0.63;;;;;;;25.90;31.99;98699.19;4990131;28;20226;-58
2021/01/19 05:03:12;;;;;;;1.52;0.70;;;;;;;25.96;32.56;98694.97;4990253;28;20216;-61
2021/01/19 05:06:12;;;;;;;0.98;0.60;;;;;;;25.98;32.84;98692.94;4991179;28;20306;-58
2021/01/19 05:09:07;;;;;;;1.38;0.60;;;;;;;26.05;31.98;98688.56;4991720;28;20205;-61
2021/01/19 05:11:46;;;;;;;1.30;0.70;;;;;;;26.03;31.33;98679.88;4994574;28;20205;-61
2021/01/19 05:14:19;;;;;;;0.50;0.50;;;;;;;26.07;32.69;98678.50;4995423;28;20286;-61
2021/01/19 05:16:45;;;;;;;1.40;0.68;;;;;;;26.09;32.01;98678.34;4995224;28;20220;-62
2021/01/19 05:19:12;;;;;;;0.82;0.63;;;;;;;26.10;31.95;98674.66;4992397;28;20228;-61
2021/01/19 05:21:39;;;;;;;1.30;0.50;;;;;;;26.12;31.77;98668.09;4994413;28;20640;-60
2021/01/19 05:24:06;;;;;;;1.25;0.60;;;;;;;26.17;32.39;98665.69;4993665;28;20202;-61
2021/01/19 05:26:34;;;;;;;5.40;0.68;;;;;;;26.14;32.54;98660.69;4994037;28;20233;-61
2021/01/19 05:29:03;;;;;;;0.75;0.50;;;;;;;26.14;31.79;98654.50;4994098;28;20241;-61
2021/01/19 05:31:30;;;;;;;0.60;0.52;;;;;;;26.20;32.40;98649.28;4994862;28;20209;-61
2021/01/19 05:34:02;;;;;;;1.25;0.60;;;;;;;26.20;31.84;98640.41;4994364;28;20211;-60
2021/01/19 05:36:38;;;;;;;1.33;0.57;;;;;;;26.18;32.10;98623.66;4992131;28;20221;-61
2021/01/19 05:39:06;;;;;;;1.15;0.60;;;;;;;26.16;30.88;98610.47;4992474;28;20221;-59
2021/01/19 05:41:35;;;;;;;1.15;0.50;;;;;;;26.15;30.78;98614.13;4994103;28;20267;-59
2021/01/19 05:44:16;;;;;;;1.67;0.80;;;;;;;26.21;30.67;98621.47;4993136;28;20237;-61
2021/01/19 05:46:45;;;;;;;1.38;0.60;;;;;;;26.20;30.36;98614.44;4994723;28;20318;-59
2021/01/19 05:49:18;;;;;;;2.20;0.50;;;;;;;26.19;31.97;98622.66;4993675;28;20308;-61
2021/01/19 05:51:47;;;;;;;2.85;0.60;;;;;;;26.17;31.35;98616.63;4994697;28;20209;-60
2021/01/19 05:54:24;;;;;;;2.20;0.70;;;;;;;26.22;32.45;98603.53;4993238;28;20205;-61
2021/01/19 05:56:51;;;;;;;4.55;1.15;;;;;;;26.12;32.23;98598.41;4992848;28;20271;-62
2021/01/19 05:59:42;;;;;;;4.32;0.88;;;;;;;26.16;31.17;98599.75;4996070;28;20540;-62
2021/01/19 06:02:11;;;;;;;1.65;0.80;;;;;;;26.27;31.31;98606.50;4986708;28;20224;-61
2021/01/19 06:04:40;;;;;;;33.83;2.15;;;;;;;26.29;32.68;98609.00;4995927;28;20237;-61
2021/01/19 06:07:08;;;;;;;18.50;1.67;;;;;;;26.37;32.24;98600.88;4995648;28;20241;-61
2021/01/19 06:09:36;;;;;;;8.13;1.73;;;;;;;26.35;32.53;98603.75;4993011;28;20225;-58
2021/01/19 06:12:03;;;;;;;9.13;1.95;;;;;;;26.35;32.36;98586.84;4994092;28;20287;-59
2021/01/19 06:14:31;;;;;;;10.60;1.65;;;;;;;26.35;32.18;98587.66;4993620;28;20210;-60
2021/01/19 06:17:14;;;;;;;9.57;1.40;;;;;;;26.24;32.54;98576.56;4993369;28;20273;-62
2021/01/19 06:19:42;;;;;;;9.05;1.55;;;;;;;26.35;32.68;98576.13;4991554;28;20320;-58
2021/01/19 06:22:11;;;;;;;11.38;1.83;;;;;;;26.33;32.62;98583.47;4992726;28;20205;-60
2021/01/19 06:24:39;;;;;;;6.97;1.48;;;;;;;26.19;32.06;98580.59;4993113;28;20304;-60
2021/01/19 06:27:07;;;;;;;5.82;1.38;;;;;;;26.16;32.51;98567.59;4991258;28;20225;-60
2021/01/19 06:29:34;;;;;;;8.75;1.75;;;;;;;26.14;32.58;98563.41;4992773;28;20233;-60
2021/01/19 06:32:01;;;;;;;4.38;1.10;;;;;;;26.09;32.40;98558.59;4992889;28;20300;-58
2021/01/19 06:34:29;;;;;;;7.23;1.10;;;;;;;26.12;33.16;98563.59;4992653;28;20958;-59
2021/01/19 06:36:55;;;;;;;8.05;1.52;;;;;;;26.20;33.44;98563.50;4991693;28;21042;-62
2021/01/19 06:39:30;;;;;;;10.98;1.70;;;;;;;26.26;32.56;98561.13;4991011;28;20311;-62
2021/01/19 06:42:05;;;;;;;9.73;1.83;;;;;;;26.22;32.77;98568.69;4992644;28;20292;-62
2021/01/19 06:44:37;;;;;;;8.05;1.65;;;;;;;26.26;32.47;98571.84;4992997;28;20628;-61
2021/01/19 06:47:04;;;;;;;12.25;1.88;;;;;;;26.34;32.87;98571.75;4993634;28;20226;-62
2021/01/19 06:49:33;;;;;;;7.53;1.58;;;;;;;26.32;32.75;98577.31;4992367;28;20272;-62
2021/01/19 06:52:05;;;;;;;5.20;1.00;;;;;;;26.37;32.53;98572.22;4992702;28;20287;-61
2021/01/19 06:54:45;;;;;;;10.32;1.48;;;;;;;26.39;32.32;98570.19;4993013;28;20632;-62
2021/01/19 06:57:21;;;;;;;2.63;1.00;;;;;;;26.37;32.62;98569.53;4993257;28;20209;-62
2021/01/19 06:59:54;;;;;;;4.78;1.13;;;;;;;26.40;33.24;98552.28;4993312;28;20236;-62
2021/01/19 07:02:23;;;;;;;9.07;1.05;;;;;;;26.39;32.56;98546.06;4992918;28;20213;-62
2021/01/19 07:04:56;;;;;;;9.32;1.50;;;;;;;26.43;32.72;98538.50;4992686;28;20205;-62
2021/01/19 07:07:42;;;;;;;3.15;1.10;;;;;;;26.39;32.97;98545.25;4992472;28;20233;-62
2021/01/19 07:10:14;;;;;;;4.15;1.00;;;;;;;26.42;33.74;98542.19;4991159;28;20267;-62
2021/01/19 07:13:00;;;;;;;4.20;1.10;;;;;;;26.35;33.23;98547.47;4994113;28;20205;-68
2021/01/19 07:16:02;;;;;;;9.18;1.42;;;;;;;26.39;33.62;98546.06;4998081;28;20202;-69
2021/01/19 07:18:53;;;;;;;4.55;1.00;;;;;;;26.44;33.65;98544.69;4999692;28;20304;-68
2021/01/19 07:21:21;;;;;;;10.05;1.10;;;;;;;26.40;33.34;98542.38;4992712;28;20241;-66
2021/01/19 07:24:18;;;;;;;7.97;1.13;;;;;;;26.34;33.99;98543.09;4993037;28;20703;-67
2021/01/19 07:26:46;;;;;;;11.90;1.20;;;;;;;26.33;34.25;98530.72;4991550;28;20226;-69
2021/01/19 07:29:15;;;;;;;4.40;1.00;;;;;;;26.42;33.18;98523.44;4991788;28;20275;-68
2021/01/19 07:31:42;;;;;;;9.95;1.25;;;;;;;26.46;33.78;98514.00;4992071;28;20209;-67
2021/01/19 07:34:10;;;;;;;8.95;0.98;;;;;;;26.40;33.63;98523.63;4990296;28;20570;-70
2021/01/19 07:36:36;;;;;;;13.60;1.33;;;;;;;26.39;33.65;98523.78;4992548;28;20206;-68
2021/01/19 07:39:12;;;;;;;3.42;0.98;;;;;;;26.49;35.55;98512.81;4992501;28;20226;-68
2021/01/19 07:41:39;;;;;;;7.10;1.08;;;;;;;26.46;36.32;98514.00;4991573;28;20576;-68
2021/01/19 07:44:06;;;;;;;10.77;1.33;;;;;;;26.47;37.06;98507.63;4991264;28;20204;-68
2021/01/19 07:46:32;;;;;;;7.40;0.90;;;;;;;26.42;37.04;98511.88;4992124;28;20293;-68
2021/01/19 07:49:02;;;;;;;4.38;1.02;;;;;;;26.37;36.69;98505.22;4990876;28;20233;-68
2021/01/19 07:51:39;;;;;;;5.82;1.10;;;;;;;26.39;36.89;98502.34;4991863;28;20201;-68
2021/01/19 07:54:06;;;;;;;6.20;0.90;;;;;;;26.37;37.00;98507.91;4992065;28;20247;-68
2021/01/19 07:56:33;;;;;;;5.18;1.27;;;;;;;26.40;37.36;98504.84;4991587;28;20202;-69
2021/01/19 07:59:00;;;;;;;6.05;1.10;;;;;;;26.52;37.06;98507.06;4991644;28;20233;-68
2021/01/19 08:01:29;;;;;;;5.25;1.52;;;;;;;26.58;37.20;98491.06;4991146;28;20292;-68
2021/01/19 08:03:56;;;;;;;6.72;0.90;;;;;;;26.69;37.04;98492.47;4990828;28;20277;-68
2021/01/19 08:06:32;;;;;;;3.42;1.00;;;;;;;26.71;36.53;98490.47;4990350;28;20221;-68
2021/01/19 08:09:09;;;;;;;4.90;0.90;;;;;;;26.67;37.05;98488.34;4990072;28;20215;-68
2021/01/19 08:11:35;;;;;;;3.85;0.80;;;;;;;26.73;37.00;98487.56;4989710;28;20212;-68
2021/01/19 08:14:02;;;;;;;4.35;1.08;;;;;;;26.76;35.76;98471.94;4990209;28;20313;-68
2021/01/19 08:16:32;;;;;;;3.80;0.93;;;;;;;26.82;36.74;98474.91;4991557;28;20347;-68
2021/01/19 08:19:08;;;;;;;1.88;0.80;;;;;;;26.79;35.91;98473.41;4991338;28;20229;-68
2021/01/19 08:21:36;;;;;;;4.13;0.70;;;;;;;26.81;36.55;98462.50;4990210;28;20651;-68
2021/01/19 08:24:09;;;;;;;5.75;0.95;;;;;;;26.76;36.36;98460.38;4991230;28;20645;-68
2021/01/19 08:26:36;;;;;;;5.43;1.10;;;;;;;26.82;36.44;98454.25;4991520;28;20415;-68
2021/01/19 08:29:06;;;;;;;6.20;0.73;;;;;;;26.90;35.91;98456.84;4990655;28;20284;-68
2021/01/19 08:31:36;;;;;;;2.03;0.90;;;;;;;26.89;36.15;98441.75;4991024;28;20295;-68
2021/01/19 08:34:04;;;;;;;2.83;0.70;;;;;;;26.87;35.69;98426.88;4991355;28;20209;-68
2021/01/19 08:36:32;;;;;;;2.53;0.93;;;;;;;26.85;35.81;98421.69;4990688;28;20730;-68
2021/01/19 08:39:00;;;;;;;1.85;0.80;;;;;;;26.81;35.70;98424.94;4991610;28;20648;-69
2021/01/19 08:41:28;;;;;;;6.18;1.05;;;;;;;26.93;36.01;98435.00;4990326;28;20205;-68
2021/01/19 08:43:57;;;;;;;1.52;0.63;;;;;;;26.98;35.58;98436.25;4992719;28;20304;-68
2021/01/19 08:46:24;;;;;;;4.60;0.80;;;;;;;26.85;35.62;98431.59;4991166;28;20221;-68
2021/01/19 08:48:52;;;;;;;1.38;0.63;;;;;;;26.87;35.75;98430.38;4990007;28;20221;-68
2021/01/19 08:51:20;;;;;;;4.40;0.93;;;;;;;26.88;35.48;98434.75;4991051;28;20209;-68
2021/01/19 08:53:47;;;;;;;1.88;0.80;;;;;;;26.90;35.65;98423.81;4990243;28;20260;-69
2021/01/19 08:56:17;;;;;;;1.58;0.63;;;;;;;26.83;35.41;98426.44;4991103;28;20274;-68
2021/01/19 08:58:43;;;;;;;1.10;0.65;;;;;;;26.82;35.60;98422.06;4990765;28;20292;-68
2021/01/19 09:01:09;;;;;;;4.20;0.85;;;;;;;26.86;35.49;98430.56;4990005;28;20213;-68
2021/01/19 09:03:36;;;;;;;3.33;0.80;;;;;;;26.87;34.82;98430.38;4990416;28;20210;-68
2021/01/19 09:06:03;;;;;;;3.72;0.70;;;;;;;26.83;35.12;98437.16;4989977;28;20287;-68
2021/01/19 09:08:30;;;;;;;6.97;1.02;;;;;;;26.69;34.94;98427.28;4990069;28;20213;-69
2021/01/19 09:11:07;;;;;;;5.45;0.82;;;;;;;26.72;34.22;98434.97;4990195;28;20225;-68
2021/01/19 09:13:37;;;;;;;3.92;0.82;;;;;;;26.69;34.00;98430.78;4990758;28;20209;-68
2021/01/19 09:16:04;;;;;;;2.90;1.02;;;;;;;26.64;34.41;98443.94;4991187;28;20276;-68
2021/01/19 09:18:30;;;;;;;5.55;0.70;;;;;;;26.68;34.74;98441.69;4989717;28;20296;-69
2021/01/19 09:21:08;;;;;;;8.75;1.23;;;;;;;26.59;34.20;98439.09;4989078;28;20221;-68
2021/01/19 09:23:35;;;;;;;3.33;0.63;;;;;;;26.59;35.43;98428.38;4992062;28;20279;-68
2021/01/19 09:26:04;;;;;;;4.13;0.75;;;;;;;26.64;35.45;98425.16;4989620;28;20288;-68
2021/01/19 09:28:32;;;;;;;3.05;0.57;;;;;;;26.67;35.36;98407.88;4990934;28;20259;-67
2021/01/19 09:31:09;;;;;;;4.47;0.80;;;;;;;26.64;34.81;98410.94;4991305;28;20240;-68
2021/01/19 09:33:36;;;;;;;7.13;0.75;;;;;;;26.59;34.84;98404.22;4991538;28;20511;-68
2021/01/19 09:36:07;;;;;;;4.90;0.80;;;;;;;26.61;35.29;98398.69;4990443;28;20201;-67
2021/01/19 09:38:34;;;;;;;0.85;0.60;;;;;;;26.64;34.75;98398.34;4989490;28;20229;-68
2021/01/19 09:41:00;;;;;;;1.27;0.63;;;;;;;26.61;34.68;98389.81;4992550;28;20663;-69
2021/01/19 09:43:28;;;;;;;2.38;0.80;;;;;;;26.57;34.55;98376.78;4990201;28;20296;-69
2021/01/19 09:46:02;;;;;;;1.58;0.80;;;;;;;26.63;34.70;98377.06;4992135;28;20221;-68
2021/01/19 09:48:31;;;;;;;4.68;0.88;;;;;;;26.59;35.11;98372.06;4993723;28;20202;-67
2021/01/19 09:51:03;;;;;;;1.75;0.70;;;;;;;26.57;35.00;98376.78;4990178;28;20252;-65
2021/01/19 09:53:33;;;;;;;3.65;0.70;;;;;;;26.59;35.16;98363.19;4994026;28;20213;-67
2021/01/19 09:56:00;;;;;;;3.75;0.90;;;;;;;26.62;34.89;98357.47;4993747;28;20204;-68
2021/01/19 09:58:28;;;;;;;2.22;0.73;;;;;;;26.69;35.50;98349.50;4994485;28;20268;-68
2021/01/19 10:00:55;;;;;;;1.85;0.70;;;;;;;26.77;34.45;98349.41;4993382;28;20731;-68
2021/01/19 10:03:25;;;;;;;1.50;0.70;;;;;;;26.71;34.57;98347.47;4993665;28;20558;-68
2021/01/19 10:05:59;;;;;;;5.60;0.77;;;;;;;26.64;35.27;98338.53;4994839;28;20256;-72
2021/01/19 10:08:27;;;;;;;10.48;1.10;;;;;;;26.54;34.63;98331.59;4994647;28;20204;-72
2021/01/19 10:10:54;;;;;;;3.08;0.85;;;;;;;26.46;34.07;98329.00;4992510;28;20647;-71
2021/01/19 10:13:29;;;;;;;3.00;0.98;;;;;;;26.30;35.11;98315.88;4992529;28;20220;-70
2021/01/19 10:16:02;;;;;;;7.80;0.90;;;;;;;26.21;34.08;98299.03;4993856;28;20540;-72
2021/01/19 10:18:31;;;;;;;6.00;1.40;;;;;;;26.18;32.59;98315.50;4993887;28;20204;-72
2021/01/19 10:20:58;;;;;;;2.10;0.90;;;;;;;26.13;33.49;98304.50;4993626;28;20708;-70
2021/01/19 10:23:29;;;;;;;5.30;1.00;;;;;;;26.07;34.14;98290.03;4993712;28;20216;-70
2021/01/19 10:26:07;;;;;;;4.65;1.30;;;;;;;25.98;34.39;98291.13;4992672;28;20280;-74
2021/01/19 10:28:42;;;;;;;2.00;0.65;;;;;;;25.88;33.97;98290.56;4993152;28;20220;-72
2021/01/19 10:31:19;;;;;;;3.78;0.90;;;;;;;25.85;34.14;98284.56;4992645;28;20205;-71
2021/01/19 10:34:00;;;;;;;1.35;0.70;;;;;;;25.97;34.20;98282.28;4992732;28;20216;-72
2021/01/19 10:36:27;;;;;;;3.33;0.70;;;;;;;26.09;35.12;98284.47;4994792;28;20221;-70
2021/01/19 10:38:54;;;;;;;3.08;0.80;;;;;;;26.09;34.43;98277.25;4993278;28;20205;-72
2021/01/19 10:41:26;;;;;;;5.93;0.80;;;;;;;26.24;34.21;98274.56;4993318;28;20665;-72
2021/01/19 10:43:54;;;;;;;1.48;0.80;;;;;;;26.25;34.18;98265.50;4993672;28;20701;-71
2021/01/19 10:46:22;;;;;;;3.53;0.77;;;;;;;26.32;34.60;98260.22;4992457;28;20226;-71
2021/01/19 10:48:59;;;;;;;4.80;0.60;;;;;;;26.35;34.02;98249.13;4994726;28;20280;-72
2021/01/19 10:51:27;;;;;;;2.88;0.98;;;;;;;26.39;33.88;98243.16;4993899;28;20209;-73
2021/01/19 10:54:09;;;;;;;2.70;1.15;;;;;;;26.45;34.14;98236.22;4994662;28;20256;-70
2021/01/19 10:56:38;;;;;;;23.90;1.48;;;;;;;26.43;34.55;98235.59;4992344;28;20287;-72
2021/01/19 10:59:05;;;;;;;2.33;0.73;;;;;;;26.51;34.40;98231.94;4992500;28;20225;-72
2021/01/19 11:01:33;;;;;;;15.50;1.48;;;;;;;26.51;34.11;98222.06;4992273;28;20209;-71
2021/01/19 11:04:00;;;;;;;4.60;1.17;;;;;;;26.57;34.78;98205.19;4992631;28;21160;-68
2021/01/19 11:06:31;;;;;;;4.95;1.20;;;;;;;26.65;33.83;98195.41;4992927;28;20230;-72
2021/01/19 11:08:57;;;;;;;2.47;0.77;;;;;;;26.70;33.91;98191.09;4990548;28;20205;-74
2021/01/19 11:11:25;;;;;;;3.00;0.77;;;;;;;26.75;34.09;98185.16;4992770;28;20598;-69
2021/01/19 11:13:52;;;;;;;2.78;1.02;;;;;;;26.79;34.47;98180.25;4991423;28;20236;-69
2021/01/19 11:16:18;;;;;;;4.18;0.90;;;;;;;26.79;33.90;98159.59;4991065;28;20197;-68
2021/01/19 11:18:45;;;;;;;1.23;0.70;;;;;;;26.87;33.63;98158.63;4991392;28;20788;-69
2021/01/19 11:21:12;;;;;;;5.35;0.82;;;;;;;26.85;33.57;98147.28;4991469;28;20296;-67
2021/01/19 11:23:39;;;;;;;4.53;0.77;;;;;;;26.80;33.65;98161.28;4990669;28;20241;-68
2021/01/19 11:26:05;;;;;;;1.80;0.70;;;;;;;26.75;33.15;98145.75;4991152;28;20228;-69
2021/01/19 11:28:31;;;;;;;24.27;1.80;;;;;;;26.71;32.76;98162.44;4991524;28;20688;-68
2021/01/19 11:30:58;;;;;;;20.35;1.80;;;;;;;26.65;33.04;98160.53;4990979;28;20311;-68
2021/01/19 11:33:25;;;;;;;7.97;1.05;;;;;;;26.63;33.56;98159.84;4990850;28;20258;-65
2021/01/19 11:35:51;;;;;;;10.48;1.65;;;;;;;26.61;34.15;98159.22;4990321;28;20212;-68
2021/01/19 11:38:17;;;;;;;5.95;1.00;;;;;;;26.55;33.71;98164.34;4990852;28;20217;-65
2021/01/19 11:40:44;;;;;;;5.00;1.02;;;;;;;26.54;33.98;98162.69;4990056;28;20312;-65
2021/01/19 11:43:10;;;;;;;24.77;2.20;;;;;;;26.51;33.79;98163.09;4992006;28;20216;-66
2021/01/19 11:45:36;;;;;;;4.28;1.02;;;;;;;26.59;34.98;98154.88;4991097;28;20401;-71